Clermont, Indiana
Current Conditions -  °F | °C
As of 6:53 AM on Sunday 23 Nov 2014 (Local Time) from KEYE Reporting Station
Scattered Clouds Scattered Clouds  
Wind Chill: 43°   Ceiling: Unl
Heat Index: 46°   Visibility: 10mi
Dew Point: 39°   Wind: 6mph
Humidity: 76%   Direction: 150°SSE
Pressure: 29.9"   Gusts: NA
Location:  39.7872°N, 86.3386°W
Report Text: KEYE 231153Z AUTO 15005KT 10SM SCT100 08/04 A2990 RMK AO2 SLP126 60000 70006 T00780039 10100 20078 55008
Loading
Personal Weather Stations






























Interactive Weather Map New forecast layout! Learn more

10-Day Weather Forecast

Advertisements
Track Severe Weather on mobile